Berdsk, Russia
Current Conditions -  °F | °C
As of 3:00 PM on Monday 20 Oct 2014 (Local Time) from UNNT Reporting Station
Overcast Overcast  
Wind Chill: 42°   Ceiling: 13000
Heat Index: 46°   Visibility: 6mi
Dew Point: 41°   Wind: 9mph
Humidity: 81%   Direction: 160°SSE
Pressure: 29.59"   Gusts: NA
Location:  54.76°N, 83.08°E
Report Text: UNNT 200800Z 16004MPS 9000 SCT026CB OVC130 08/05 Q1002 2509007016090070 NOSIG RMK QFE741/0989
Loading
Personal Weather Stations






























Interactive Weather Map
Tropical Storm Tracking
New forecast layout! Learn more

10-Day Weather Forecast

Advertisements
Track Severe Weather on mobile